Inman, KS (67546)

9:09 PM CDT on September 02, 2014 (GMT -0500)
Inman | Change Station
CLOSE
Current Station
Personal Weather Station
Location: Inman, KS
Elevation: 1526 ft
Nearby Weather Stations

Elev 1526 ft 38.23 °N, 97.77 °W | Updated 3 minutes ago

Clear
Clear
75.9 °F
Feels Like 75 °F
N
4.0
Wind Variable Wind from SSE
Gusts 4.0 mph

Today
High -- | Low -- °F
--% Chance of Precip.
Yesterday
High -- | Low -- °F
Precip. -- in
7:01 AM 7:59 PM
First Quarter, 57% visible
Pressure 29.86 in
Visibility 10.0 miles
Clouds Few 7000 ft
Mostly Cloudy 9500 ft
Heat Index 75 °F
Dew Point 75 °F
Humidity 97%
Rainfall 0.00 in
Snow Depth Not available.
UV 0 out of 12
Pollen 10.30 out of 12
Air Quality Not available.
Flu Activity Not available.
METAR KHUT 030152Z 12005KT 10SM FEW070 BKN095 25/20 A2992 RMK AO2 SLP111 T02500200

More Conditions Fewer Conditions

Pressure 29.86 in
Visibility 10.0 miles
Clouds Few 7000 ft
Mostly Cloudy 9500 ft
Heat Index 75 °F
Dew Point 75 °F
Humidity 97%
Rainfall 0.00 in
Snow Depth Not available.
UV 0 out of 12
Pollen 10.30 out of 12
Air Quality Not available.
Flu Activity Not available.
METAR KHUT 030152Z 12005KT 10SM FEW070 BKN095 25/20 A2992 RMK AO2 SLP111 T02500200

More Conditions Fewer Conditions

10-Day Weather Forecast

Almanac

Astronomy

Sep. 02, 2014 Rise Set
Actual Time 7:01 AM CDT 7:59 PM CDT
Civil Twilight 6:34 AM CDT 8:26 PM CDT
Nautical Twilight 6:02 AM CDT 8:58 PM CDT
Astronomical Twilight 5:29 AM CDT 9:31 PM CDT
Moon 2:41 PM CDT (9/2) 12:08 AM CDT (9/2)
Length of Visible Light 13h 51m
Length of Day
12h 57m
Tomorrow will be 2m 23s shorter.
First Quarter, 57% of the Moon is Illuminated
Today
First Quarter
Sep 8
Full
Sep 15
Last Quarter
Sep 24
New
Oct 1
First Quarter

Today's Extremes

State Highs State Lows

Community

WunderPhotos

Upload Photos

1,749,837 photos uploaded!

Nearby

Snow Depth

Station Depth Elevation
No new snow has been reported.

Earthquake Activity

City Distance Mag. Time & Date
Helena, Oklahoma 124 miles 3.2 3:05 AM CDT
2014-09-02
Medford, Oklahoma 105 miles 3.3 11:58 PM CDT
2014-09-01
Enid, Oklahoma 112 miles 3.4 11:57 AM CDT
2014-08-31
Enid, Oklahoma 113 miles 3.7 2:20 AM CDT
2014-08-31
Minimum magnitude displayed is 2.5.

Coastal Water Temperatures

Place Temperature
No Stations Reporting

Nearby Weather Stations